Time;durP1;ratioP1;P1;durP2;ratioP2;P2;SDS_P1;SDS_P2;PMS_P1;PMS_P2;Temp;Humidity;BMP_temperature;BMP_pressure;BME280_temperature;BME280_humidity;BME280_pressure;Samples;Min_cycle;Max_cycle;Signal;HPM_P1;HPM_P2
2021/07/17 00:00:34;;;;;;;;;23.00;22.00;;;;;27.03;57.72;98635.16;6050036;28;97585;-66
2021/07/17 00:03:37;;;;;;;;;23.40;22.60;;;;;26.97;58.06;98633.75;6082202;28;97433;-64
2021/07/17 00:06:41;;;;;;;;;24.00;23.40;;;;;26.95;57.94;98634.06;6040355;28;97216;-64
2021/07/17 00:09:44;;;;;;;;;21.00;19.00;;;;;26.96;58.04;98637.66;6066238;28;97403;-64
2021/07/17 00:12:48;;;;;;;;;24.20;21.00;;;;;26.81;57.70;98619.66;6057665;28;96797;-66
2021/07/17 00:15:53;;;;;;;;;22.40;22.00;;;;;26.99;57.82;98625.91;6047387;28;97556;-65
2021/07/17 00:18:57;;;;;;;;;25.00;22.80;;;;;26.98;57.60;98629.81;6075349;28;97726;-66
2021/07/17 00:22:03;;;;;;;;;22.00;22.00;;;;;26.97;57.61;98633.75;6074136;28;97230;-66
2021/07/17 00:25:08;;;;;;;;;22.00;20.00;;;;;26.95;57.88;98628.53;6077985;28;96981;-66
2021/07/17 00:28:12;;;;;;;;;21.60;21.00;;;;;26.93;57.80;98619.75;6082435;28;97187;-65
2021/07/17 00:31:16;;;;;;;;;20.75;19.25;;;;;26.94;57.64;98617.81;6079223;28;96465;-66
2021/07/17 00:34:20;;;;;;;;;23.00;21.00;;;;;26.93;57.62;98618.94;6073454;28;97210;-64
2021/07/17 00:37:23;;;;;;;;;24.00;22.75;;;;;26.91;58.05;98626.78;6051277;28;97809;-65
2021/07/17 00:40:26;;;;;;;;;22.60;21.00;;;;;26.92;57.65;98609.06;6080848;28;97426;-66
2021/07/17 00:43:30;;;;;;;;;26.00;22.00;;;;;26.91;57.68;98605.47;6064925;28;97274;-65
2021/07/17 00:46:36;;;;;;;;;23.00;22.00;;;;;26.89;58.08;98598.63;6080986;28;97752;-64
2021/07/17 00:49:39;;;;;;;;;19.00;19.00;;;;;26.86;57.72;98585.47;6031999;28;99626;-66
2021/07/17 00:52:42;;;;;;;;;20.00;19.00;;;;;26.82;57.79;98585.31;6067557;28;97468;-64
2021/07/17 00:55:52;;;;;;;;;22.20;20.00;;;;;26.75;57.43;98590.56;6073292;28;96473;-64
2021/07/17 00:58:58;;;;;;;;;22.50;20.00;;;;;26.65;57.56;98589.00;6068607;28;97518;-64
2021/07/17 01:02:05;;;;;;;;;21.60;20.60;;;;;26.62;58.16;98591.63;6050608;28;97848;-65
2021/07/17 01:05:10;;;;;;;;;21.00;19.60;;;;;26.57;57.72;98603.69;6088921;28;97204;-65
2021/07/17 01:08:21;;;;;;;;;18.20;16.00;;;;;26.57;57.47;98606.47;6073397;28;96768;-64
2021/07/17 01:11:24;;;;;;;;;23.00;20.00;;;;;26.57;58.03;98611.97;6034361;28;96771;-66
2021/07/17 01:14:27;;;;;;;;;21.40;20.00;;;;;26.50;58.10;98619.97;6083562;28;97433;-66
2021/07/17 01:17:32;;;;;;;;;22.00;20.00;;;;;26.44;58.19;98631.56;6074599;28;97542;-66
2021/07/17 01:20:39;;;;;;;;;21.00;18.00;;;;;26.39;58.10;98629.78;6080840;28;97603;-65
2021/07/17 01:23:44;;;;;;;;;19.80;18.80;;;;;26.41;58.30;98643.28;6063093;28;97102;-64
2021/07/17 01:26:47;;;;;;;;;20.00;19.80;;;;;26.42;58.22;98645.72;6071980;28;99556;-65
2021/07/17 01:29:51;;;;;;;;;23.25;20.00;;;;;26.44;58.22;98645.41;6054347;28;97739;-64
2021/07/17 01:32:54;;;;;;;;;21.80;19.60;;;;;26.45;58.19;98645.03;6078701;28;97034;-66
2021/07/17 01:35:58;;;;;;;;;21.50;19.00;;;;;26.44;57.81;98639.88;6079204;28;96430;-64
2021/07/17 01:39:02;;;;;;;;;20.40;20.00;;;;;26.38;57.77;98642.00;6039435;28;98608;-64
2021/07/17 01:42:08;;;;;;;;;21.00;20.00;;;;;26.37;57.82;98637.59;6035872;28;96708;-64
2021/07/17 01:45:20;;;;;;;;;27.40;22.00;;;;;26.37;58.10;98637.59;6077210;28;96560;-64
2021/07/17 01:48:25;;;;;;;;;23.40;21.00;;;;;26.18;57.89;98612.28;6065231;28;97677;-64
2021/07/17 01:51:28;;;;;;;;;19.60;19.00;;;;;26.37;58.06;98629.31;6076961;28;97536;-66
2021/07/17 01:54:34;;;;;;;;;21.00;20.00;;;;;26.38;58.12;98638.41;6053595;28;97159;-64
2021/07/17 01:57:38;;;;;;;;;21.00;19.40;;;;;26.43;57.95;98630.75;6056001;28;97546;-65
2021/07/17 02:00:41;;;;;;;;;23.75;21.75;;;;;26.49;58.03;98637.69;6058693;28;96720;-64
2021/07/17 02:03:45;;;;;;;;;22.50;19.75;;;;;26.51;57.86;98645.66;6076240;28;97583;-67
2021/07/17 02:06:49;;;;;;;;;16.75;16.75;;;;;26.34;57.52;98643.78;6088972;28;96828;-65
2021/07/17 02:09:54;;;;;;;;;19.00;18.00;;;;;26.23;57.41;98642.53;6069710;28;96840;-66
2021/07/17 02:12:59;;;;;;;;;19.60;17.60;;;;;26.18;57.85;98632.44;6078823;28;97067;-65
2021/07/17 02:16:03;;;;;;;;;19.00;18.50;;;;;26.12;57.90;98619.13;6076833;28;96727;-64
2021/07/17 02:19:17;;;;;;;;;18.60;17.60;;;;;26.20;57.89;98627.38;6070395;28;97144;-66
2021/07/17 02:22:20;;;;;;;;;21.60;19.60;;;;;26.19;58.12;98627.72;6071273;28;96690;-66
2021/07/17 02:25:25;;;;;;;;;20.75;19.75;;;;;26.16;58.23;98628.38;6071183;28;96529;-65
2021/07/17 02:28:28;;;;;;;;;21.00;19.40;;;;;26.18;58.29;98632.44;6067128;28;96743;-64
2021/07/17 02:31:31;;;;;;;;;21.40;19.40;;;;;26.21;58.41;98633.72;6084033;28;97260;-65
2021/07/17 02:34:35;;;;;;;;;18.80;17.00;;;;;26.21;57.99;98642.00;6068978;28;97454;-65
2021/07/17 02:37:38;;;;;;;;;21.00;20.00;;;;;26.18;58.04;98639.91;6081155;28;97095;-65
2021/07/17 02:40:43;;;;;;;;;20.60;19.60;;;;;26.14;58.20;98644.47;6061165;28;97426;-65
2021/07/17 02:43:49;;;;;;;;;20.25;18.25;;;;;26.09;57.83;98633.63;6076354;28;96827;-65
2021/07/17 02:46:55;;;;;;;;;18.60;17.60;;;;;26.05;58.04;98641.72;6082393;28;98067;-65
2021/07/17 02:49:58;;;;;;;;;20.00;18.60;;;;;26.06;57.73;98634.25;6083044;28;97416;-64
2021/07/17 02:53:02;;;;;;;;;19.00;17.00;;;;;26.07;58.00;98636.69;6051073;28;97310;-66
2021/07/17 02:56:07;;;;;;;;;20.80;17.40;;;;;26.08;57.79;98629.22;6084469;28;96952;-64
2021/07/17 02:59:10;;;;;;;;;18.00;17.33;;;;;26.07;57.89;98631.16;6054142;28;98680;-64
2021/07/17 03:02:13;;;;;;;;;19.00;17.80;;;;;26.06;57.66;98624.00;6071106;28;96621;-66
2021/07/17 03:05:17;;;;;;;;;18.00;17.00;;;;;25.96;57.78;98605.03;6078994;28;96439;-66
2021/07/17 03:08:22;;;;;;;;;18.50;18.50;;;;;26.07;57.68;98628.41;6083422;28;96993;-65
2021/07/17 03:11:26;;;;;;;;;20.00;18.00;;;;;26.11;57.45;98611.97;6082335;28;98105;-65
2021/07/17 03:14:30;;;;;;;;;22.40;20.00;;;;;26.05;57.87;98627.91;6075486;28;97470;-66
2021/07/17 03:17:34;;;;;;;;;20.40;19.00;;;;;25.98;58.05;98618.53;6079921;28;96885;-66
2021/07/17 03:20:37;;;;;;;;;25.00;22.60;;;;;25.89;58.48;98621.31;6078176;28;97448;-66
2021/07/17 03:23:40;;;;;;;;;19.00;18.00;;;;;25.91;58.49;98630.06;6050630;28;96669;-65
2021/07/17 03:26:45;;;;;;;;;22.00;19.00;;;;;25.93;58.49;98638.03;6082592;28;97364;-66
2021/07/17 03:29:49;;;;;;;;;22.00;20.75;;;;;25.99;58.20;98631.19;6082647;28;97316;-66
2021/07/17 03:32:52;;;;;;;;;21.80;19.20;;;;;26.04;58.16;98634.59;6066343;28;96718;-66
2021/07/17 03:35:55;;;;;;;;;27.33;23.33;;;;;26.13;57.93;98629.03;6070274;28;97415;-66
2021/07/17 03:38:59;;;;;;;;;20.50;20.50;;;;;26.18;58.22;98634.38;6089110;28;97415;-64
2021/07/17 03:42:06;;;;;;;;;22.40;21.00;;;;;26.25;58.37;98629.19;6058314;28;98176;-65
2021/07/17 03:45:10;;;;;;;;;22.40;20.00;;;;;26.30;58.47;98635.34;6071473;28;97140;-65
2021/07/17 03:48:13;;;;;;;;;23.75;22.75;;;;;26.40;58.54;98642.47;6054320;28;97478;-66
2021/07/17 03:51:16;;;;;;;;;25.80;23.40;;;;;26.46;58.35;98645.84;6078056;28;96584;-65
2021/07/17 03:54:19;;;;;;;;;25.00;22.25;;;;;26.44;58.50;98648.94;6051743;28;99695;-66
2021/07/17 03:57:24;;;;;;;;;26.50;23.00;;;;;26.42;58.24;98642.94;6046926;28;97818;-65
2021/07/17 04:00:27;;;;;;;;;24.00;23.00;;;;;26.44;57.84;98648.16;6074818;28;96653;-66
2021/07/17 04:03:32;;;;;;;;;25.00;24.20;;;;;26.52;57.81;98641.78;6041730;28;97290;-65
2021/07/17 04:06:36;;;;;;;;;23.20;21.00;;;;;26.55;57.57;98636.38;6056649;28;97200;-66
2021/07/17 04:09:40;;;;;;;;;24.75;22.00;;;;;26.51;58.12;98649.25;6074781;28;96690;-64
2021/07/17 04:12:44;;;;;;;;;26.00;23.40;;;;;26.50;57.67;98644.84;6075225;28;97555;-65
2021/07/17 04:15:48;;;;;;;;;23.00;22.00;;;;;26.49;57.94;98640.47;6065304;28;97572;-65
2021/07/17 04:18:51;;;;;;;;;28.00;25.00;;;;;26.56;57.78;98637.19;6043032;28;98109;-67
2021/07/17 04:21:54;;;;;;;;;25.00;22.40;;;;;26.60;57.63;98638.97;6078165;28;97093;-66
2021/07/17 04:24:58;;;;;;;;;24.60;24.00;;;;;26.66;57.99;98648.69;6065432;28;96556;-65
2021/07/17 04:28:03;;;;;;;;;26.00;24.20;;;;;26.71;57.42;98642.16;6081942;28;97129;-65
2021/07/17 04:31:07;;;;;;;;;26.33;25.00;;;;;26.77;57.79;98634.50;6067507;28;97521;-65
2021/07/17 04:34:10;;;;;;;;;25.50;24.25;;;;;26.84;57.59;98645.81;6064274;28;96679;-65
2021/07/17 04:37:15;;;;;;;;;23.50;22.50;;;;;26.88;57.48;98655.13;6078896;28;96991;-66
2021/07/17 04:40:19;;;;;;;;;27.25;24.50;;;;;26.86;57.39;98652.69;6070513;28;97538;-66
2021/07/17 04:43:23;;;;;;;;;27.40;25.40;;;;;26.84;57.36;98656.88;6067548;28;97230;-66
2021/07/17 04:46:26;;;;;;;;;24.00;22.20;;;;;26.86;57.31;98649.91;6081480;28;97525;-64
2021/07/17 04:49:30;;;;;;;;;28.00;24.00;;;;;26.88;56.71;98661.44;6063540;28;97730;-64
2021/07/17 04:52:33;;;;;;;;;26.60;24.00;;;;;26.93;56.71;98655.72;6069027;28;98291;-66
2021/07/17 04:55:36;;;;;;;;;24.40;22.40;;;;;26.88;56.53;98653.16;6051835;28;96720;-65
2021/07/17 04:58:41;;;;;;;;;22.00;20.60;;;;;26.91;56.86;98658.03;6068066;28;96904;-67
2021/07/17 05:01:44;;;;;;;;;26.40;24.40;;;;;26.99;56.78;98648.84;6082129;28;97176;-65
2021/07/17 05:04:48;;;;;;;;;28.00;25.00;;;;;27.03;56.59;98643.44;6068769;28;98281;-66
2021/07/17 05:07:52;;;;;;;;;24.00;22.25;;;;;27.16;56.75;98645.19;6066528;28;97474;-64
2021/07/17 05:10:56;;;;;;;;;25.00;21.60;;;;;27.32;56.34;98642.63;6079517;28;96462;-66
2021/07/17 05:14:00;;;;;;;;;25.00;22.60;;;;;27.47;55.57;98644.75;6049637;28;97235;-65
2021/07/17 05:17:04;;;;;;;;;25.00;23.00;;;;;27.54;56.19;98651.41;6060592;28;96632;-65
2021/07/17 05:20:09;;;;;;;;;22.80;20.80;;;;;27.62;55.55;98654.44;6080981;28;97620;-66
2021/07/17 05:23:13;;;;;;;;;23.67;22.00;;;;;27.71;54.92;98652.44;6076645;28;97180;-66
2021/07/17 05:26:16;;;;;;;;;22.80;21.20;;;;;27.76;54.75;98652.22;6055838;28;97266;-64
2021/07/17 05:29:21;;;;;;;;;23.00;22.00;;;;;27.80;55.07;98656.72;6050942;28;96700;-65
2021/07/17 05:32:24;;;;;;;;;23.60;21.20;;;;;27.88;54.67;98661.38;6078589;28;96594;-64
2021/07/17 05:35:28;;;;;;;;;27.00;22.00;;;;;27.93;54.64;98652.84;6077931;28;97081;-64
2021/07/17 05:38:32;;;;;;;;;24.00;23.00;;;;;28.11;54.31;98652.66;6084905;28;98019;-65
2021/07/17 05:41:35;;;;;;;;;25.00;22.25;;;;;28.32;54.24;98639.56;6084530;28;96630;-66
2021/07/17 05:44:40;;;;;;;;;23.20;21.00;;;;;28.51;53.38;98642.59;6079409;28;97149;-65
2021/07/17 05:47:43;;;;;;;;;22.60;21.00;;;;;28.82;53.52;98647.59;6062280;28;97636;-65
2021/07/17 05:50:48;;;;;;;;;23.00;20.80;;;;;29.06;52.45;98641.22;6059431;28;96637;-63
2021/07/17 05:53:51;;;;;;;;;22.60;21.00;;;;;29.29;52.23;98636.78;6051506;28;97085;-64
2021/07/17 05:56:54;;;;;;;;;22.75;20.00;;;;;29.46;51.80;98642.09;6068697;28;97545;-64
2021/07/17 05:59:59;;;;;;;;;19.40;18.00;;;;;29.60;51.51;98641.69;6068534;28;96822;-63
2021/07/17 06:03:03;;;;;;;;;20.80;18.00;;;;;29.80;51.42;98631.53;6066712;28;99515;-63
2021/07/17 06:06:07;;;;;;;;;20.00;18.40;;;;;30.02;51.21;98636.53;6085089;28;97505;-64
2021/07/17 06:09:11;;;;;;;;;20.00;17.80;;;;;30.10;49.67;98616.91;6040462;28;97633;-64
2021/07/17 06:12:14;;;;;;;;;20.00;17.80;;;;;30.26;49.98;98639.16;6081166;28;97798;-64
2021/07/17 06:15:19;;;;;;;;;22.00;20.00;;;;;30.37;49.65;98642.22;6043038;28;97685;-64
2021/07/17 06:18:22;;;;;;;;;22.40;21.00;;;;;30.42;49.81;98641.97;6082714;28;97654;-63
2021/07/17 06:21:25;;;;;;;;;21.00;19.00;;;;;30.50;49.70;98635.44;6081505;28;97478;-63
2021/07/17 06:24:29;;;;;;;;;20.00;18.00;;;;;30.67;49.56;98643.44;6056547;28;97797;-64
2021/07/17 06:27:32;;;;;;;;;18.00;17.60;;;;;30.83;48.42;98647.03;6055642;28;98480;-63
2021/07/17 06:30:37;;;;;;;;;17.80;16.60;;;;;31.04;48.64;98643.13;6067991;28;97463;-64
2021/07/17 06:33:40;;;;;;;;;19.60;18.00;;;;;31.22;47.51;98647.97;6073654;28;96968;-64
2021/07/17 06:36:44;;;;;;;;;18.75;18.00;;;;;31.31;47.32;98651.34;6078171;28;97411;-63
2021/07/17 06:39:47;;;;;;;;;16.80;14.20;;;;;31.43;47.12;98653.16;6084404;28;96936;-64
2021/07/17 06:42:51;;;;;;;;;20.75;17.00;;;;;31.60;46.93;98643.63;6059164;28;97721;-63
2021/07/17 06:45:56;;;;;;;;;19.25;18.00;;;;;31.74;46.76;98646.69;6070117;28;97572;-65
2021/07/17 06:48:59;;;;;;;;;19.00;18.00;;;;;31.91;46.77;98651.84;6061751;28;97393;-63
2021/07/17 06:52:04;;;;;;;;;16.00;15.00;;;;;32.09;46.46;98654.94;6066152;28;96805;-63
2021/07/17 06:55:09;;;;;;;;;19.00;16.60;;;;;32.22;45.27;98648.03;6079596;28;96593;-65
2021/07/17 06:58:13;;;;;;;;;16.60;16.00;;;;;32.45;45.48;98643.28;6076488;28;97497;-64
2021/07/17 07:01:17;;;;;;;;;17.00;15.50;;;;;32.73;45.09;98631.84;6061254;28;97517;-64
2021/07/17 07:04:21;;;;;;;;;17.00;17.00;;;;;32.97;44.90;98625.81;6043102;28;97695;-64
2021/07/17 07:07:25;;;;;;;;;14.20;13.00;;;;;33.17;44.35;98632.13;6051123;28;97449;-64
2021/07/17 07:10:28;;;;;;;;;16.20;15.20;;;;;33.29;43.17;98629.09;6060406;28;97501;-64
2021/07/17 07:13:32;;;;;;;;;17.40;16.00;;;;;33.36;42.89;98637.59;6068078;28;96695;-64
2021/07/17 07:16:37;;;;;;;;;15.00;14.00;;;;;33.56;43.21;98632.66;6069155;28;97483;-64
2021/07/17 07:19:40;;;;;;;;;18.00;15.00;;;;;33.66;42.33;98631.97;6068003;28;97564;-63
2021/07/17 07:22:44;;;;;;;;;18.60;16.00;;;;;33.76;42.08;98622.13;6087204;28;97481;-64
2021/07/17 07:25:47;;;;;;;;;14.20;13.00;;;;;33.83;42.08;98631.41;6075061;28;96633;-65
2021/07/17 07:28:56;;;;;;;;;15.20;12.80;;;;;33.99;41.13;98631.19;6072935;28;97528;-63
2021/07/17 07:32:00;;;;;;;;;12.60;11.60;;;;;34.25;40.19;98631.09;6049847;28;96910;-64
2021/07/17 07:35:05;;;;;;;;;11.40;11.00;;;;;34.44;40.19;98641.28;6065815;28;97414;-63
2021/07/17 07:38:08;;;;;;;;;11.80;11.00;;;;;34.67;39.37;98639.09;6074063;28;97088;-64
2021/07/17 07:41:12;;;;;;;;;14.00;13.00;;;;;34.68;39.10;98639.91;6056889;28;97917;-64
2021/07/17 07:44:15;;;;;;;;;12.00;11.40;;;;;34.58;38.34;98640.59;6049727;28;96734;-64
2021/07/17 07:47:20;;;;;;;;;15.00;13.00;;;;;34.50;38.60;98628.53;6068320;28;97244;-65
2021/07/17 07:50:27;;;;;;;;;13.80;12.80;;;;;34.56;37.87;98631.75;6074990;28;96792;-63
2021/07/17 07:53:30;;;;;;;;;13.80;13.00;;;;;34.81;38.42;98634.78;6041705;28;97090;-65
2021/07/17 07:56:33;;;;;;;;;15.00;14.00;;;;;34.92;38.48;98644.88;6063930;28;97810;-63
2021/07/17 07:59:37;;;;;;;;;13.00;12.60;;;;;34.99;37.62;98638.53;6063256;28;99717;-64
2021/07/17 08:02:42;;;;;;;;;15.00;13.00;;;;;35.02;37.60;98641.38;6049291;28;97430;-65
2021/07/17 08:05:46;;;;;;;;;12.00;11.00;;;;;34.99;38.03;98642.13;6056085;28;97806;-64
2021/07/17 08:08:49;;;;;;;;;13.75;12.00;;;;;34.87;38.14;98641.66;6061918;28;98685;-63
2021/07/17 08:11:52;;;;;;;;;13.00;12.00;;;;;34.74;38.68;98641.16;6083701;28;96467;-63
2021/07/17 08:14:56;;;;;;;;;14.60;13.20;;;;;34.66;38.63;98647.84;6075109;28;97568;-65
2021/07/17 08:18:01;;;;;;;;;13.00;11.00;;;;;34.51;38.84;98632.91;6066520;28;97208;-64
2021/07/17 08:21:04;;;;;;;;;15.50;13.50;;;;;34.36;38.62;98634.78;6060696;28;99607;-64
2021/07/17 08:24:08;;;;;;;;;16.50;15.25;;;;;34.33;39.20;98638.38;6068890;28;97638;-65
2021/07/17 08:27:11;;;;;;;;;16.00;15.40;;;;;34.33;39.32;98640.34;6049675;28;96788;-65
2021/07/17 08:30:18;;;;;;;;;14.00;13.00;;;;;34.49;39.03;98648.50;6048003;28;96742;-64
2021/07/17 08:33:29;;;;;;;;;14.00;13.00;;;;;34.56;39.39;98642.94;6047514;28;96992;-65
2021/07/17 08:36:33;;;;;;;;;16.00;15.00;;;;;34.60;39.07;98641.00;6081607;28;97262;-63
2021/07/17 08:39:36;;;;;;;;;12.60;12.00;;;;;34.58;38.21;98646.19;6064611;28;98654;-65
2021/07/17 08:42:44;;;;;;;;;11.80;11.20;;;;;34.61;38.52;98643.41;6048059;28;97490;-65
2021/07/17 08:45:48;;;;;;;;;15.00;12.00;;;;;34.67;38.11;98646.66;6065145;28;97453;-64
2021/07/17 08:48:54;;;;;;;;;13.00;13.00;;;;;34.61;37.61;98654.59;6051650;28;96723;-65
2021/07/17 08:51:59;;;;;;;;;16.00;14.00;;;;;34.50;38.61;98652.91;6061949;28;98666;-64
2021/07/17 08:55:05;;;;;;;;;15.80;15.40;;;;;34.54;38.59;98657.34;6047395;28;97565;-64
2021/07/17 08:58:08;;;;;;;;;15.00;14.00;;;;;34.55;38.79;98644.94;6081138;28;97572;-65
2021/07/17 09:01:15;;;;;;;;;14.00;13.00;;;;;34.59;38.35;98645.81;6071910;28;97548;-63
2021/07/17 09:04:26;;;;;;;;;12.00;12.00;;;;;34.69;38.25;98656.31;6081386;28;96661;-65
2021/07/17 09:07:30;;;;;;;;;14.00;14.00;;;;;34.73;38.31;98647.94;6080302;28;96508;-63
2021/07/17 09:10:37;;;;;;;;;14.80;14.00;;;;;34.82;38.54;98651.22;6070503;28;98499;-63
2021/07/17 09:13:40;;;;;;;;;14.75;14.00;;;;;34.96;38.53;98656.91;6077870;28;97618;-65
2021/07/17 09:16:43;;;;;;;;;12.80;11.40;;;;;35.03;38.04;98650.56;6069863;28;97400;-63
2021/07/17 09:19:55;;;;;;;;;15.00;14.00;;;;;35.02;37.91;98649.75;6063660;28;97244;-65
2021/07/17 09:22:59;;;;;;;;;12.00;11.00;;;;;35.05;38.59;98645.38;6066254;28;96561;-65
2021/07/17 09:26:10;;;;;;;;;14.00;13.25;;;;;35.05;37.63;98648.97;6076942;28;96518;-65
2021/07/17 09:29:14;;;;;;;;;13.00;12.50;;;;;35.00;37.68;98648.53;6080192;28;97475;-66
2021/07/17 09:32:17;;;;;;;;;16.00;14.50;;;;;34.94;38.00;98647.31;6051223;28;97911;-65
2021/07/17 09:35:22;;;;;;;;;14.20;13.20;;;;;35.04;38.34;98650.16;6068335;28;97095;-65
2021/07/17 09:38:27;;;;;;;;;15.50;14.50;;;;;35.14;37.81;98645.81;6050377;28;98160;-65
2021/07/17 09:41:31;;;;;;;;;15.00;13.20;;;;;35.17;38.55;98645.09;6068421;28;97557;-64
2021/07/17 09:44:36;;;;;;;;;14.60;14.00;;;;;35.27;38.28;98646.34;6067616;28;98101;-65
2021/07/17 09:47:39;;;;;;;;;15.80;14.20;;;;;35.33;38.69;98650.38;6047392;28;97514;-65
2021/07/17 09:50:44;;;;;;;;;15.40;14.40;;;;;35.42;38.28;98643.22;6046450;28;98467;-64
2021/07/17 09:53:49;;;;;;;;;14.80;12.80;;;;;35.39;38.04;98641.19;6066222;28;98072;-65
2021/07/17 09:57:01;;;;;;;;;12.20;12.20;;;;;35.32;37.11;98641.19;6065316;28;98082;-65
2021/07/17 10:00:06;;;;;;;;;15.00;14.00;;;;;35.16;37.44;98637.84;6067542;28;97531;-64
2021/07/17 10:03:35;;;;;;;;;14.00;14.00;;;;;35.04;38.87;98636.16;6076883;28;96919;-65
2021/07/17 10:06:45;;;;;;;;;15.25;14.00;;;;;35.06;38.97;98630.16;6067520;28;97447;-63
2021/07/17 10:09:50;;;;;;;;;14.50;13.00;;;;;35.14;38.40;98629.81;6048081;28;97197;-64
2021/07/17 10:12:59;;;;;;;;;16.00;14.80;;;;;35.15;39.04;98625.03;6067266;28;97548;-64
2021/07/17 10:16:15;;;;;;;;;15.60;15.00;;;;;35.20;38.43;98628.28;6084100;28;97925;-63
2021/07/17 10:19:19;;;;;;;;;15.00;14.00;;;;;35.25;38.53;98626.31;6081534;28;97751;-63
2021/07/17 10:22:26;;;;;;;;;15.60;15.40;;;;;35.32;38.42;98627.16;6075859;28;97019;-64
2021/07/17 10:25:30;;;;;;;;;16.00;15.25;;;;;35.35;38.69;98625.56;6076985;28;97476;-65
2021/07/17 10:28:34;;;;;;;;;16.00;15.00;;;;;35.41;37.92;98624.00;6073756;28;97480;-65
2021/07/17 10:31:38;;;;;;;;;14.00;13.00;;;;;35.51;38.14;98624.06;6063256;28;97589;-66
2021/07/17 10:34:44;;;;;;;;;16.50;15.00;;;;;35.58;37.89;98634.47;6049824;28;97913;-64
2021/07/17 10:37:52;;;;;;;;;13.60;13.00;;;;;35.56;38.14;98626.47;6068295;28;96775;-64
2021/07/17 10:40:59;;;;;;;;;14.60;14.00;;;;;35.61;37.91;98628.09;6063390;28;97248;-66
2021/07/17 10:44:02;;;;;;;;;15.00;14.00;;;;;35.62;37.79;98627.72;6066106;28;97466;-63
2021/07/17 10:47:07;;;;;;;;;15.60;14.00;;;;;35.70;38.01;98634.16;6066178;28;96573;-64
2021/07/17 10:50:15;;;;;;;;;14.00;14.00;;;;;35.79;37.59;98629.00;6065961;28;97259;-64
2021/07/17 10:53:49;;;;;;;;;15.60;14.00;;;;;35.94;37.34;98636.25;6079824;28;96876;-63
2021/07/17 10:56:54;;;;;;;;;16.00;14.00;;;;;36.01;36.80;98621.44;6049376;28;99745;-65
2021/07/17 10:59:57;;;;;;;;;16.00;15.25;;;;;36.22;37.38;98615.09;6074837;28;97417;-63
2021/07/17 11:03:21;;;;;;;;;13.40;13.00;;;;;36.72;36.35;98615.94;6076188;28;96604;-63
2021/07/17 11:06:26;;;;;;;;;14.60;14.00;;;;;37.06;35.17;98611.47;6054601;28;97409;-65
2021/07/17 11:09:30;;;;;;;;;12.00;11.00;;;;;37.50;34.96;98610.16;6055746;28;97706;-63
2021/07/17 11:12:35;;;;;;;;;16.25;16.00;;;;;37.69;34.06;98620.97;6039338;28;97439;-65
2021/07/17 11:15:48;;;;;;;;;15.40;14.40;;;;;37.68;34.41;98611.72;6063326;28;97297;-65
2021/07/17 11:18:51;;;;;;;;;15.00;12.50;;;;;37.73;33.96;98602.84;6061501;28;96759;-63
2021/07/17 11:21:57;;;;;;;;;16.00;15.80;;;;;37.63;33.57;98608.56;6047987;28;96787;-65
2021/07/17 11:25:05;;;;;;;;;14.75;13.00;;;;;37.65;34.06;98606.94;6063344;28;96857;-65
2021/07/17 11:28:08;;;;;;;;;13.75;13.75;;;;;37.84;33.57;98600.00;6063007;28;96670;-65
2021/07/17 11:31:41;;;;;;;;;16.00;15.00;;;;;37.96;32.81;98607.19;6062624;28;97802;-63
2021/07/17 11:34:49;;;;;;;;;16.00;14.00;;;;;38.00;32.64;98603.16;6063228;28;97388;-63
2021/07/17 11:37:54;;;;;;;;;15.00;14.00;;;;;38.00;32.51;98608.78;6057650;28;96963;-64
2021/07/17 11:40:58;;;;;;;;;15.80;14.80;;;;;38.00;32.15;98597.53;6062240;28;97628;-64
2021/07/17 11:44:02;;;;;;;;;16.20;13.00;;;;;37.94;32.75;98606.78;6062072;28;96790;-63
2021/07/17 11:47:08;;;;;;;;;14.00;14.00;;;;;37.95;32.45;98599.94;6030124;28;96687;-63
2021/07/17 11:50:13;;;;;;;;;17.00;14.75;;;;;38.06;32.40;98603.53;6057796;28;96869;-65
2021/07/17 11:53:18;;;;;;;;;13.75;13.00;;;;;37.94;32.83;98592.69;6050715;28;97456;-65
2021/07/17 11:56:22;;;;;;;;;15.75;14.00;;;;;38.06;31.79;98595.88;6069164;28;97399;-63
2021/07/17 11:59:26;;;;;;;;;13.00;13.00;;;;;38.04;33.21;98592.66;6032810;28;96918;-63
2021/07/17 12:02:31;;;;;;;;;16.20;15.00;;;;;38.04;32.33;98584.22;6059636;28;98776;-64
2021/07/17 12:05:35;;;;;;;;;15.50;15.00;;;;;38.15;33.25;98595.41;6047672;28;97319;-64
2021/07/17 12:08:39;;;;;;;;;14.00;13.40;;;;;38.36;32.11;98588.84;6062753;28;97407;-63
2021/07/17 12:11:43;;;;;;;;;13.00;13.00;;;;;38.55;31.93;98591.13;6062149;28;97486;-63
2021/07/17 12:14:48;;;;;;;;;16.00;14.60;;;;;38.71;33.30;98582.13;6062112;28;97087;-65
2021/07/17 12:17:55;;;;;;;;;14.40;12.40;;;;;38.62;32.72;98590.25;6062150;28;97239;-64
2021/07/17 12:20:58;;;;;;;;;17.00;16.00;;;;;38.51;32.47;98581.91;6062232;28;97492;-64
2021/07/17 12:24:02;;;;;;;;;16.50;15.50;;;;;38.64;33.00;98582.19;6052870;28;97766;-65
2021/07/17 12:27:07;;;;;;;;;15.80;15.00;;;;;38.58;33.53;98587.47;6061237;28;97635;-64
2021/07/17 12:30:14;;;;;;;;;16.00;15.00;;;;;38.47;31.99;98570.66;6062036;28;96793;-64
2021/07/17 12:33:33;;;;;;;;;16.20;15.20;;;;;38.39;32.24;98557.81;6062098;28;97260;-63
2021/07/17 12:36:42;;;;;;;;;16.50;14.00;;;;;37.94;32.51;98558.94;6044697;28;98216;-64
2021/07/17 12:39:45;;;;;;;;;16.00;15.00;;;;;37.81;34.36;98549.38;6063555;28;97584;-65
2021/07/17 12:42:50;;;;;;;;;16.00;16.00;;;;;37.80;33.71;98544.94;6060806;28;96768;-63
2021/07/17 12:45:59;;;;;;;;;17.50;15.00;;;;;37.80;34.13;98540.13;6063076;28;96716;-62
2021/07/17 12:49:05;;;;;;;;;17.75;16.75;;;;;37.76;33.62;98535.75;6055789;28;97241;-63
2021/07/17 12:52:10;;;;;;;;;15.50;15.00;;;;;37.72;34.46;98532.94;6063848;28;96964;-62
2021/07/17 12:55:13;;;;;;;;;17.20;16.00;;;;;37.59;34.40;98529.00;6064587;28;96674;-63
2021/07/17 12:58:18;;;;;;;;;16.00;15.60;;;;;37.45;35.54;98529.84;6069803;28;98048;-64
2021/07/17 13:01:22;;;;;;;;;16.00;16.00;;;;;37.50;33.16;98511.75;6075124;28;96635;-64
2021/07/17 13:04:27;;;;;;;;;18.00;16.00;;;;;37.55;34.03;98512.16;6072061;28;96447;-64
2021/07/17 13:07:32;;;;;;;;;16.00;15.00;;;;;37.65;33.52;98507.66;6068240;28;97530;-65
2021/07/17 13:10:36;;;;;;;;;17.00;16.00;;;;;37.77;33.76;98495.16;6079038;28;97976;-63
2021/07/17 13:13:40;;;;;;;;;18.00;17.00;;;;;37.81;32.84;98493.09;6064602;28;98926;-65
2021/07/17 13:16:46;;;;;;;;;17.00;15.00;;;;;37.82;33.47;98489.06;6075065;28;96883;-62
2021/07/17 13:20:00;;;;;;;;;18.60;17.00;;;;;37.79;34.03;98482.25;6073512;28;96543;-62
2021/07/17 13:23:04;;;;;;;;;16.00;16.00;;;;;37.65;34.25;98485.97;6060980;28;97865;-63
2021/07/17 13:26:17;;;;;;;;;16.00;16.00;;;;;37.52;33.74;98484.03;6081678;28;96500;-64
2021/07/17 13:29:24;;;;;;;;;18.40;16.80;;;;;37.48;34.47;98478.44;6068328;28;96716;-63
2021/07/17 13:32:29;;;;;;;;;18.25;17.00;;;;;37.67;34.89;98477.13;6071711;28;96657;-63
2021/07/17 13:35:33;;;;;;;;;18.50;17.00;;;;;37.84;34.58;98476.19;6064017;28;100240;-62
2021/07/17 13:38:37;;;;;;;;;19.00;16.20;;;;;37.89;33.56;98481.38;6050451;28;97732;-64
2021/07/17 13:41:40;;;;;;;;;17.00;16.00;;;;;38.05;33.89;98461.97;6047996;28;98661;-64
2021/07/17 13:44:45;;;;;;;;;15.00;14.60;;;;;38.24;33.86;98469.06;6054900;28;98395;-66
2021/07/17 13:47:50;;;;;;;;;17.00;15.40;;;;;38.44;33.61;98464.47;6063287;28;97485;-66
2021/07/17 13:51:04;;;;;;;;;16.50;15.50;;;;;38.55;33.02;98453.91;6072892;28;97504;-66
2021/07/17 13:54:08;;;;;;;;;17.00;15.00;;;;;38.61;32.06;98457.03;6081532;28;96962;-65
2021/07/17 13:57:14;;;;;;;;;15.25;14.50;;;;;38.68;32.41;98456.16;6080766;28;96662;-65
2021/07/17 14:00:19;;;;;;;;;18.00;16.00;;;;;38.76;32.04;98458.47;6072981;28;96504;-64
2021/07/17 14:03:24;;;;;;;;;15.80;14.80;;;;;38.80;32.36;98444.38;6083757;28;96608;-64
2021/07/17 14:06:30;;;;;;;;;17.00;15.00;;;;;38.81;32.73;98446.75;6070648;28;96496;-64
2021/07/17 14:09:33;;;;;;;;;17.00;15.00;;;;;38.77;33.47;98431.91;6085745;28;97669;-65